Time;durP1;ratioP1;P1;durP2;ratioP2;P2;SDS_P1;SDS_P2;PMS_P1;PMS_P2;Temp;Humidity;BMP_temperature;BMP_pressure;BME280_temperature;BME280_humidity;BME280_pressure;Samples;Min_cycle;Max_cycle;Signal;HPM_P1;HPM_P2
2022/07/15 00:02:22;;;;;;;3.47;1.05;;;;;;;12.00;89.21;101585.25;4990924;28;20165;-49
2022/07/15 00:04:48;;;;;;;5.80;1.40;;;;;;;12.01;89.53;101585.22;4990387;28;20180;-48
2022/07/15 00:07:13;;;;;;;8.10;1.10;;;;;;;11.89;89.39;101586.47;4991000;28;20185;-47
2022/07/15 00:12:23;;;;;;;5.10;1.10;;;;;;;12.01;89.82;101587.91;4990767;28;20377;-48
2022/07/15 00:14:49;;;;;;;7.65;1.20;;;;;;;12.18;88.96;101576.59;4990386;28;20176;-47
2022/07/15 00:17:14;;;;;;;11.15;1.60;;;;;;;11.91;89.68;101581.91;4990849;28;20592;-49
2022/07/15 00:19:40;;;;;;;9.57;1.33;;;;;;;11.97;89.77;101580.00;4990483;28;20575;-51
2022/07/15 00:22:06;;;;;;;7.25;1.30;;;;;;;12.00;89.97;101583.44;4972867;28;20673;-49
2022/07/15 00:24:31;;;;;;;7.13;1.20;;;;;;;11.98;89.84;101581.72;4990587;28;20185;-50
2022/07/15 00:26:57;;;;;;;3.72;1.10;;;;;;;11.91;89.81;101578.38;4990398;28;20244;-48
2022/07/15 00:29:23;;;;;;;6.93;1.30;;;;;;;11.97;90.00;101582.66;4990776;28;20257;-49
2022/07/15 00:31:48;;;;;;;6.28;1.27;;;;;;;11.94;89.95;101576.47;4990738;28;20173;-48
2022/07/15 00:34:14;;;;;;;4.90;1.00;;;;;;;11.88;90.27;101573.09;5005234;28;20169;-49
2022/07/15 00:36:40;;;;;;;4.72;1.00;;;;;;;11.80;90.66;101565.25;4994531;28;20181;-46
2022/07/15 00:39:06;;;;;;;5.90;1.20;;;;;;;11.75;91.07;101577.94;4977306;28;20204;-47
2022/07/15 00:41:38;;;;;;;12.27;1.55;;;;;;;11.75;91.23;101573.44;4994336;28;20208;-47
2022/07/15 00:44:04;;;;;;;7.18;1.23;;;;;;;11.88;91.55;101571.28;4995106;28;20181;-47
2022/07/15 00:46:31;;;;;;;6.93;1.30;;;;;;;11.87;91.64;101569.50;4994580;28;20260;-47
2022/07/15 00:48:57;;;;;;;7.47;1.35;;;;;;;11.85;91.67;101570.47;5009399;28;20212;-50
2022/07/15 00:51:23;;;;;;;7.40;1.45;;;;;;;11.95;91.90;101570.16;4994576;28;20164;-45
2022/07/15 00:53:52;;;;;;;3.90;1.40;;;;;;;11.97;91.66;101572.81;5009340;28;20185;-52
2022/07/15 00:56:20;;;;;;;8.52;1.63;;;;;;;12.10;91.38;101562.53;4994705;28;20174;-49
2022/07/15 00:58:47;;;;;;;8.68;1.67;;;;;;;12.06;91.19;101564.44;4994325;28;20675;-48
2022/07/15 01:01:18;;;;;;;8.57;1.92;;;;;;;12.16;90.83;101559.66;4994793;28;20186;-49
2022/07/15 01:03:47;;;;;;;7.47;1.58;;;;;;;12.17;90.98;101577.53;4976780;28;20177;-50
2022/07/15 01:06:12;;;;;;;7.75;1.60;;;;;;;12.10;90.92;101566.09;4994495;28;20257;-48
2022/07/15 01:08:38;;;;;;;6.10;1.35;;;;;;;12.27;90.75;101557.50;4994887;28;20276;-50
2022/07/15 01:11:04;;;;;;;9.32;1.33;;;;;;;12.21;90.49;101555.00;4994183;28;20173;-49
2022/07/15 01:13:30;;;;;;;6.43;1.67;;;;;;;12.20;90.49;101569.38;4994322;28;20173;-49
2022/07/15 01:15:56;;;;;;;9.02;1.50;;;;;;;12.33;90.48;101559.06;4994459;28;20245;-49
2022/07/15 01:18:22;;;;;;;9.38;1.35;;;;;;;12.27;89.99;101565.56;5008854;28;20197;-45
2022/07/15 01:20:48;;;;;;;6.18;1.50;;;;;;;12.30;90.17;101568.13;4976667;28;20212;-49
2022/07/15 01:23:16;;;;;;;6.18;1.30;;;;;;;12.38;90.53;101567.88;4976264;28;20253;-48
2022/07/15 01:25:46;;;;;;;9.95;1.50;;;;;;;12.34;89.97;101564.41;4994592;28;20217;-52
2022/07/15 01:28:13;;;;;;;9.27;1.45;;;;;;;12.31;89.61;101566.31;4976663;28;20201;-47
2022/07/15 01:30:38;;;;;;;7.47;1.17;;;;;;;12.35;89.11;101566.19;4993984;28;20157;-48
2022/07/15 01:33:06;;;;;;;3.65;1.10;;;;;;;12.30;89.65;101570.81;5008838;28;20268;-49
2022/07/15 01:35:32;;;;;;;5.93;1.13;;;;;;;12.31;89.45;101569.91;4976139;28;20170;-48
2022/07/15 01:37:57;;;;;;;8.50;1.70;;;;;;;12.42;88.65;101565.94;5008910;28;20489;-48
2022/07/15 01:40:23;;;;;;;9.02;1.40;;;;;;;12.40;88.52;101574.09;4976223;28;20213;-49
2022/07/15 01:42:50;;;;;;;6.30;1.90;;;;;;;12.47;88.64;101575.63;4981941;28;20637;-46
2022/07/15 01:45:16;;;;;;;9.63;2.42;;;;;;;12.49;88.70;101571.06;4956781;28;20270;-46
2022/07/15 01:47:47;;;;;;;6.05;1.80;;;;;;;12.63;88.13;101578.66;4971840;28;20166;-50
2022/07/15 01:50:20;;;;;;;5.20;1.60;;;;;;;12.61;87.79;101569.75;4957085;28;20351;-47
2022/07/15 01:52:57;;;;;;;8.88;1.77;;;;;;;12.61;87.99;101569.75;4960658;28;20185;-52
2022/07/15 01:55:24;;;;;;;6.75;1.92;;;;;;;12.60;88.27;101572.53;4975878;28;20213;-46
2022/07/15 01:57:52;;;;;;;7.32;2.15;;;;;;;12.63;87.86;101575.09;4975657;28;20204;-47
2022/07/15 02:00:17;;;;;;;5.75;1.58;;;;;;;12.61;87.66;101576.94;4975236;28;20205;-52
2022/07/15 02:02:43;;;;;;;4.75;1.27;;;;;;;12.63;87.25;101573.28;4993708;28;20173;-48
2022/07/15 02:05:09;;;;;;;8.27;1.63;;;;;;;12.72;87.49;101582.81;4975147;28;20241;-51
2022/07/15 02:07:36;;;;;;;6.30;1.20;;;;;;;12.63;87.24;101578.66;4975425;28;20177;-47
2022/07/15 02:10:04;;;;;;;4.47;1.27;;;;;;;12.62;86.92;101587.66;4975446;28;20699;-47
2022/07/15 02:12:29;;;;;;;6.00;1.63;;;;;;;12.61;87.12;101585.00;4975391;28;20344;-48
2022/07/15 02:14:55;;;;;;;7.63;1.55;;;;;;;12.53;87.17;101583.47;4975079;28;20173;-48
2022/07/15 02:17:24;;;;;;;7.18;1.48;;;;;;;12.57;87.05;101585.13;4974888;28;20197;-48
2022/07/15 02:19:50;;;;;;;4.13;1.25;;;;;;;12.53;87.52;101582.59;4975319;28;20208;-50
2022/07/15 02:22:15;;;;;;;6.97;1.83;;;;;;;12.58;87.52;101586.00;4975453;28;20235;-48
2022/07/15 02:24:42;;;;;;;5.07;1.73;;;;;;;12.54;87.62;101584.34;4974987;28;20189;-49
2022/07/15 02:27:07;;;;;;;11.25;1.50;;;;;;;12.58;87.39;101586.00;4975302;28;20181;-47
2022/07/15 02:29:33;;;;;;;5.32;1.52;;;;;;;12.60;87.49;101584.16;4993190;28;20216;-48
2022/07/15 02:31:59;;;;;;;3.13;1.20;;;;;;;12.64;87.38;101588.50;4975253;28;20176;-51
2022/07/15 02:34:25;;;;;;;6.72;1.65;;;;;;;12.61;87.25;101590.41;4975214;28;20273;-49
2022/07/15 02:36:50;;;;;;;8.77;1.95;;;;;;;12.62;87.48;101593.03;4974969;28;20310;-48
2022/07/15 02:39:15;;;;;;;5.88;1.25;;;;;;;12.65;87.49;101590.22;4975210;28;20674;-48
2022/07/15 02:41:42;;;;;;;3.97;1.10;;;;;;;12.65;87.10;101586.66;4974930;28;20227;-47
2022/07/15 02:44:10;;;;;;;3.45;0.93;;;;;;;12.70;86.57;101588.28;4974685;28;20177;-48
2022/07/15 02:46:37;;;;;;;5.82;1.20;;;;;;;12.63;86.52;101593.91;4974969;28;20565;-51
2022/07/15 02:49:03;;;;;;;4.53;1.42;;;;;;;12.70;86.39;101588.28;4974953;28;20200;-47
2022/07/15 02:51:29;;;;;;;4.90;0.85;;;;;;;12.74;86.45;101602.47;4974993;28;20892;-47
2022/07/15 02:53:54;;;;;;;5.03;1.20;;;;;;;12.75;86.52;101594.38;4992159;28;20172;-49
2022/07/15 02:56:22;;;;;;;8.63;1.33;;;;;;;12.74;86.41;101592.59;4974778;28;20237;-48
2022/07/15 02:58:48;;;;;;;4.53;1.05;;;;;;;12.68;86.54;101600.00;4974247;28;20676;-51
2022/07/15 03:01:15;;;;;;;5.18;1.00;;;;;;;12.76;86.83;101601.47;4974546;28;20702;-48
2022/07/15 03:03:40;;;;;;;8.57;1.38;;;;;;;12.61;86.87;101602.00;4958229;28;20169;-48
2022/07/15 03:06:10;;;;;;;3.78;0.90;;;;;;;12.52;87.11;101594.28;4974225;28;20566;-50
2022/07/15 03:08:36;;;;;;;2.75;1.20;;;;;;;12.50;87.86;101599.69;4974354;28;20204;-51
2022/07/15 03:11:02;;;;;;;5.65;1.13;;;;;;;12.46;88.00;101598.06;4974387;28;20185;-47
2022/07/15 03:13:27;;;;;;;6.35;1.27;;;;;;;12.51;88.38;101596.09;4973744;28;20178;-47
2022/07/15 03:15:53;;;;;;;5.93;1.17;;;;;;;12.55;88.40;101602.22;4974273;28;20213;-49
2022/07/15 03:18:22;;;;;;;3.92;0.90;;;;;;;12.40;88.55;101610.81;4958329;28;20305;-50
2022/07/15 03:20:48;;;;;;;5.43;1.08;;;;;;;12.44;88.06;101607.09;4974187;28;20324;-46
2022/07/15 03:23:14;;;;;;;4.43;1.10;;;;;;;12.47;88.24;101607.00;4973888;28;20213;-50
2022/07/15 03:25:40;;;;;;;6.03;0.90;;;;;;;12.54;88.61;101609.41;4973692;28;20185;-48
2022/07/15 03:28:09;;;;;;;9.32;1.58;;;;;;;12.50;88.04;101609.56;4958448;28;20201;-47
2022/07/15 03:30:37;;;;;;;5.07;1.45;;;;;;;12.57;87.84;101619.19;4973902;28;20212;-49
2022/07/15 03:33:03;;;;;;;5.05;0.90;;;;;;;12.52;87.61;101613.09;4973777;28;20660;-47
2022/07/15 03:35:29;;;;;;;5.88;1.25;;;;;;;12.54;88.14;101619.28;4973854;28;20185;-47
2022/07/15 03:37:55;;;;;;;7.57;1.27;;;;;;;12.55;88.40;101621.03;4973595;28;20231;-47
2022/07/15 03:40:21;;;;;;;4.82;1.10;;;;;;;12.46;88.21;101611.50;4974085;28;20313;-46
2022/07/15 03:42:46;;;;;;;6.75;1.10;;;;;;;12.58;88.49;101611.06;4965428;28;20641;-47
2022/07/15 03:45:12;;;;;;;4.40;1.00;;;;;;;12.56;88.37;101615.63;4966544;28;20224;-46
2022/07/15 03:47:38;;;;;;;4.53;0.82;;;;;;;12.54;88.21;101616.59;4954396;28;20261;-48
2022/07/15 03:50:08;;;;;;;7.07;1.13;;;;;;;12.56;88.37;101622.81;4954610;28;20233;-47
2022/07/15 03:52:35;;;;;;;7.45;1.08;;;;;;;12.65;88.03;101616.25;4946923;28;20188;-46
2022/07/15 03:55:01;;;;;;;4.28;0.82;;;;;;;12.74;87.20;101619.47;4973166;28;20173;-46
2022/07/15 03:57:26;;;;;;;6.05;1.30;;;;;;;12.71;86.61;101624.97;4991012;28;20161;-49
2022/07/15 03:59:52;;;;;;;5.78;1.00;;;;;;;12.69;85.86;101617.91;4990852;28;20197;-47
2022/07/15 04:02:18;;;;;;;4.28;1.10;;;;;;;12.80;85.42;101626.47;4990892;28;20288;-46
2022/07/15 04:04:43;;;;;;;5.95;1.20;;;;;;;12.80;85.77;101623.78;4991212;28;20170;-46
2022/07/15 04:07:09;;;;;;;6.85;1.60;;;;;;;12.78;84.85;101626.50;4991221;28;20173;-47
2022/07/15 04:09:34;;;;;;;7.65;1.70;;;;;;;12.83;84.35;101630.84;4990790;28;20233;-49
2022/07/15 04:12:00;;;;;;;5.60;0.98;;;;;;;12.77;84.27;101629.28;4973578;28;20165;-46
2022/07/15 04:14:26;;;;;;;3.95;1.08;;;;;;;12.69;84.13;101636.72;4990597;28;20181;-46
2022/07/15 04:16:51;;;;;;;3.28;1.35;;;;;;;12.67;84.60;101633.19;4991361;28;20185;-44
2022/07/15 04:19:37;;;;;;;6.88;1.42;;;;;;;12.80;84.44;101629.16;4989865;28;20209;-45
2022/07/15 04:22:04;;;;;;;6.53;1.25;;;;;;;12.87;84.49;101627.13;4973276;28;20701;-46
2022/07/15 04:24:36;;;;;;;4.55;1.25;;;;;;;12.76;84.50;101625.69;4957893;28;20189;-46
2022/07/15 04:27:02;;;;;;;4.82;1.23;;;;;;;12.76;84.49;101638.25;4990787;28;20659;-46
2022/07/15 04:29:28;;;;;;;5.85;1.30;;;;;;;12.91;84.09;101624.28;4973396;28;20732;-48
2022/07/15 04:31:53;;;;;;;6.07;1.13;;;;;;;12.80;84.90;101630.97;4972943;28;20177;-50
2022/07/15 04:34:26;;;;;;;7.72;1.00;;;;;;;12.83;84.76;101630.84;4973223;28;20165;-47
2022/07/15 04:36:52;;;;;;;5.78;1.02;;;;;;;12.70;84.76;101636.69;4973363;28;20528;-47
2022/07/15 04:39:18;;;;;;;8.10;1.40;;;;;;;12.81;84.91;101630.03;4973182;28;20207;-47
2022/07/15 04:41:43;;;;;;;3.65;1.02;;;;;;;12.81;85.02;101640.78;4973465;28;20287;-48
2022/07/15 04:44:09;;;;;;;4.30;0.98;;;;;;;12.74;85.60;101640.13;4972568;28;20176;-45
2022/07/15 04:46:34;;;;;;;8.27;1.88;;;;;;;12.72;85.30;101640.16;4973083;28;20170;-45
2022/07/15 04:52:04;;;;;;;6.80;1.20;;;;;;;12.85;85.67;101639.75;4972605;28;20184;-46
2022/07/15 04:54:33;;;;;;;5.18;1.48;;;;;;;13.00;84.94;101647.28;4972851;28;20170;-46
2022/07/15 04:56:59;;;;;;;4.22;1.00;;;;;;;13.09;84.16;101641.56;4973075;28;20162;-47
2022/07/15 04:59:26;;;;;;;5.40;1.30;;;;;;;13.17;83.68;101650.25;4973147;28;20288;-45
2022/07/15 05:01:53;;;;;;;6.72;1.25;;;;;;;13.28;83.55;101649.00;4972632;28;20296;-44
2022/07/15 05:04:28;;;;;;;3.03;1.05;;;;;;;13.23;82.85;101650.97;4972686;28;20585;-45
2022/07/15 05:06:53;;;;;;;4.80;1.38;;;;;;;13.26;83.19;101648.19;4990513;28;20253;-46
2022/07/15 05:09:19;;;;;;;4.70;1.23;;;;;;;13.26;83.08;101646.34;4973045;28;20696;-45
2022/07/15 05:11:44;;;;;;;5.15;1.20;;;;;;;13.26;82.33;101643.66;4990580;28;20169;-44
2022/07/15 05:14:10;;;;;;;5.82;1.20;;;;;;;13.28;82.70;101643.63;4972312;28;20224;-47
2022/07/15 05:16:35;;;;;;;4.10;1.20;;;;;;;13.40;82.56;101648.56;4957019;28;20192;-48
2022/07/15 05:19:01;;;;;;;5.90;1.17;;;;;;;13.41;82.31;101644.97;4972846;28;20248;-45
2022/07/15 05:21:27;;;;;;;7.47;1.20;;;;;;;13.43;81.57;101661.06;4990891;28;20197;-45
2022/07/15 05:23:53;;;;;;;6.70;1.35;;;;;;;13.53;81.55;101649.88;4976194;28;20185;-43
2022/07/15 05:26:18;;;;;;;5.70;1.27;;;;;;;13.61;80.64;101660.34;4976478;28;20177;-46
2022/07/15 05:28:44;;;;;;;4.68;1.10;;;;;;;13.77;79.81;101660.66;5008996;28;20205;-46
2022/07/15 05:31:10;;;;;;;4.43;1.10;;;;;;;13.77;79.75;101668.72;4993832;28;20165;-47
2022/07/15 05:33:36;;;;;;;5.68;1.50;;;;;;;13.88;79.10;101662.94;5008746;28;20188;-46
2022/07/15 05:36:05;;;;;;;5.63;1.13;;;;;;;13.72;79.01;101671.59;4976303;28;20178;-45
2022/07/15 05:38:31;;;;;;;4.95;0.88;;;;;;;13.88;79.07;101666.50;4976143;28;20576;-46
2022/07/15 05:40:59;;;;;;;4.60;1.00;;;;;;;13.95;79.43;101668.03;4976333;28;20214;-46
2022/07/15 05:43:26;;;;;;;6.00;1.15;;;;;;;13.83;78.24;101678.41;4993133;28;20177;-44
2022/07/15 05:45:52;;;;;;;6.05;1.40;;;;;;;13.99;78.36;101671.47;4993743;28;20708;-45
2022/07/15 05:48:18;;;;;;;4.55;1.15;;;;;;;14.20;78.25;101670.63;4974483;28;20400;-45
2022/07/15 05:50:49;;;;;;;3.28;1.35;;;;;;;14.38;76.48;101677.09;4976137;28;20162;-46
2022/07/15 05:53:15;;;;;;;3.38;1.17;;;;;;;14.38;77.04;101678.91;4975722;28;20573;-48
2022/07/15 05:55:42;;;;;;;6.30;1.23;;;;;;;14.43;76.13;101671.53;4975670;28;20612;-44
2022/07/15 05:58:12;;;;;;;4.28;1.00;;;;;;;14.35;75.57;101673.66;4975847;28;20278;-45
2022/07/15 06:00:40;;;;;;;7.35;1.00;;;;;;;14.42;75.00;101677.84;4975517;28;20205;-46
2022/07/15 06:03:05;;;;;;;5.22;1.10;;;;;;;14.47;74.77;101686.63;4975637;28;20187;-49
2022/07/15 06:05:37;;;;;;;7.68;1.15;;;;;;;14.46;75.47;101676.78;4975670;28;20268;-47
2022/07/15 06:08:03;;;;;;;6.47;1.10;;;;;;;14.48;74.98;101692.91;4959381;28;20272;-49
2022/07/15 06:10:33;;;;;;;5.18;1.42;;;;;;;14.36;74.46;101678.97;4975358;28;20608;-45
2022/07/15 06:12:59;;;;;;;3.45;1.15;;;;;;;14.41;74.09;101686.91;4975133;28;20208;-43
2022/07/15 06:15:24;;;;;;;2.92;1.08;;;;;;;14.56;73.95;101698.88;4975656;28;20181;-44
2022/07/15 06:17:51;;;;;;;5.78;1.70;;;;;;;14.87;72.82;101700.31;4993031;28;20713;-47
2022/07/15 06:20:20;;;;;;;3.70;1.05;;;;;;;15.08;71.29;101696.69;4975081;28;20252;-44
2022/07/15 06:22:45;;;;;;;5.10;1.13;;;;;;;15.35;70.03;101705.44;4975542;28;20256;-44
2022/07/15 06:25:11;;;;;;;3.47;1.13;;;;;;;15.29;70.50;101708.38;4974781;28;20281;-44
2022/07/15 06:27:37;;;;;;;2.55;0.93;;;;;;;15.17;69.43;101700.81;4975641;28;20161;-44
2022/07/15 06:30:04;;;;;;;5.28;1.20;;;;;;;15.49;69.69;101695.81;4975315;28;20200;-44
2022/07/15 06:32:29;;;;;;;6.00;1.20;;;;;;;15.57;69.10;101696.38;4974917;28;20190;-44
2022/07/15 06:34:55;;;;;;;3.17;1.00;;;;;;;15.57;68.51;101701.78;4992407;28;20200;-49
2022/07/15 06:37:21;;;;;;;6.55;1.20;;;;;;;15.58;68.52;101696.28;4992381;28;20260;-45
2022/07/15 06:39:47;;;;;;;5.00;0.80;;;;;;;15.35;68.13;101709.91;4975011;28;20201;-47
2022/07/15 06:42:12;;;;;;;5.82;0.93;;;;;;;15.85;67.28;101707.69;4974911;28;20472;-46
2022/07/15 06:44:38;;;;;;;6.53;1.23;;;;;;;16.26;65.68;101690.44;4974365;28;20180;-46
2022/07/15 06:47:06;;;;;;;6.97;0.90;;;;;;;16.36;64.62;101699.00;4974760;28;20177;-45
2022/07/15 06:49:34;;;;;;;3.63;0.90;;;;;;;17.02;63.65;101698.44;4991739;28;20251;-47
2022/07/15 06:52:00;;;;;;;3.65;0.90;;;;;;;16.28;63.46;101702.06;4992292;28;20154;-45
2022/07/15 06:54:26;;;;;;;5.45;1.17;;;;;;;16.22;65.11;101708.66;4974041;28;20170;-45
2022/07/15 06:56:51;;;;;;;3.70;0.93;;;;;;;15.87;65.21;101718.41;4974545;28;20173;-45
2022/07/15 06:59:17;;;;;;;4.65;0.90;;;;;;;15.50;66.06;101719.19;4974230;28;20190;-47
2022/07/15 07:01:45;;;;;;;6.28;0.93;;;;;;;15.47;66.29;101713.94;4974524;28;20205;-46
2022/07/15 07:04:10;;;;;;;6.18;1.00;;;;;;;15.80;66.53;101725.06;4957902;28;20183;-45
2022/07/15 07:06:36;;;;;;;5.32;0.80;;;;;;;15.44;67.12;101723.03;4975035;28;20180;-46
2022/07/15 07:09:03;;;;;;;5.50;0.90;;;;;;;15.38;66.01;101726.00;4974616;28;20201;-46
2022/07/15 07:11:29;;;;;;;4.38;1.02;;;;;;;15.65;66.86;101730.19;4974380;28;20545;-46
2022/07/15 07:13:54;;;;;;;5.07;0.82;;;;;;;15.19;66.48;101726.78;4991298;28;20252;-44
2022/07/15 07:16:20;;;;;;;1.60;0.88;;;;;;;15.40;68.07;101732.22;4991922;28;20217;-46
2022/07/15 07:18:47;;;;;;;3.00;0.93;;;;;;;15.57;66.19;101728.78;4991569;28;20483;-47
2022/07/15 07:21:13;;;;;;;5.55;0.82;;;;;;;15.53;64.71;101727.16;4991742;28;20193;-45
2022/07/15 07:23:39;;;;;;;3.88;1.00;;;;;;;15.61;64.28;101717.78;4991033;28;20207;-45
2022/07/15 07:26:06;;;;;;;3.40;0.98;;;;;;;15.83;64.06;101724.91;4991186;28;20192;-45
2022/07/15 07:28:32;;;;;;;2.78;0.80;;;;;;;15.98;64.64;101718.81;4991600;28;20185;-46
2022/07/15 07:30:59;;;;;;;3.13;0.90;;;;;;;15.95;64.07;101729.75;4991507;28;20649;-47
2022/07/15 07:33:25;;;;;;;3.08;0.70;;;;;;;15.86;63.31;101724.78;4989246;28;20186;-46
2022/07/15 07:35:51;;;;;;;8.25;1.23;;;;;;;15.93;63.75;101718.13;4991124;28;20197;-47
2022/07/15 07:38:19;;;;;;;3.05;0.82;;;;;;;16.14;64.21;101716.25;4990916;28;20288;-45
2022/07/15 07:40:47;;;;;;;3.65;0.82;;;;;;;16.80;64.13;101714.91;4991312;28;20669;-46
2022/07/15 07:43:17;;;;;;;2.67;0.90;;;;;;;17.03;61.93;101711.00;4991002;28;20169;-46
2022/07/15 07:45:43;;;;;;;6.25;1.10;;;;;;;17.00;63.23;101724.72;4990096;28;20190;-45
2022/07/15 07:48:09;;;;;;;4.15;1.23;;;;;;;16.53;62.00;101714.41;4989744;28;20173;-46
2022/07/15 07:50:34;;;;;;;3.72;0.98;;;;;;;16.25;62.67;101711.22;4990697;28;20602;-46
2022/07/15 07:53:00;;;;;;;4.05;0.88;;;;;;;16.38;63.04;101703.38;4990781;28;20181;-47
2022/07/15 07:55:25;;;;;;;3.35;0.95;;;;;;;15.94;62.40;101719.00;4990596;28;20197;-50
2022/07/15 07:57:53;;;;;;;4.22;0.88;;;;;;;15.85;63.38;101721.22;4990888;28;20264;-47
2022/07/15 08:00:20;;;;;;;4.88;0.88;;;;;;;15.68;63.33;101723.78;4990747;28;20626;-48
2022/07/15 08:02:47;;;;;;;3.65;0.95;;;;;;;15.82;63.79;101717.75;4990544;28;20180;-49
2022/07/15 08:05:13;;;;;;;3.08;0.77;;;;;;;15.66;63.48;101726.53;4990229;28;20173;-50
2022/07/15 08:07:39;;;;;;;6.05;0.93;;;;;;;15.63;64.34;101725.78;4991164;28;20545;-49
2022/07/15 08:10:05;;;;;;;3.88;0.80;;;;;;;15.72;63.64;101724.53;4972240;28;20217;-48
2022/07/15 08:12:31;;;;;;;2.97;0.85;;;;;;;15.62;62.66;101724.03;4990774;28;20166;-47
2022/07/15 08:14:57;;;;;;;3.15;0.47;;;;;;;16.64;61.37;101709.34;4989925;28;20209;-49
2022/07/15 08:17:23;;;;;;;3.05;0.70;;;;;;;17.48;59.94;101709.59;4990541;28;20216;-48
2022/07/15 08:19:48;;;;;;;2.95;0.93;;;;;;;17.47;59.93;101707.81;4990106;28;20197;-47
2022/07/15 08:22:14;;;;;;;2.95;1.15;;;;;;;17.65;57.44;101696.00;4988983;28;20215;-48
2022/07/15 08:24:41;;;;;;;6.07;0.88;;;;;;;17.57;58.50;101706.38;4988927;28;20201;-50
2022/07/15 08:27:07;;;;;;;3.90;0.90;;;;;;;17.00;59.94;101706.63;4990303;28;20173;-47
2022/07/15 08:29:32;;;;;;;2.15;0.73;;;;;;;16.79;59.17;101708.59;4990364;28;20201;-49
2022/07/15 08:31:57;;;;;;;2.90;0.80;;;;;;;17.02;60.50;101717.41;4991015;28;20218;-48
2022/07/15 08:34:23;;;;;;;3.22;0.63;;;;;;;16.59;61.24;101714.09;4990573;28;20621;-48
2022/07/15 08:36:49;;;;;;;3.00;0.90;;;;;;;16.52;60.71;101718.06;4990657;28;20173;-47
2022/07/15 08:39:15;;;;;;;6.13;0.88;;;;;;;16.30;62.22;101718.22;4990423;28;20668;-49
2022/07/15 08:41:41;;;;;;;5.45;1.00;;;;;;;16.19;63.29;101725.03;4990391;28;20541;-48
2022/07/15 08:44:07;;;;;;;3.67;0.95;;;;;;;16.43;63.21;101719.41;4972882;28;20240;-47
2022/07/15 08:46:34;;;;;;;5.72;0.85;;;;;;;16.52;62.66;101718.06;4990352;28;20173;-49
2022/07/15 08:49:05;;;;;;;2.20;0.70;;;;;;;16.52;62.34;101721.63;4990282;28;20237;-49
2022/07/15 08:51:36;;;;;;;3.15;0.70;;;;;;;16.46;62.64;101724.63;4990882;28;20153;-50
2022/07/15 08:54:02;;;;;;;8.90;1.30;;;;;;;16.51;61.19;101719.00;4988350;28;20193;-48
2022/07/15 08:56:27;;;;;;;2.72;0.90;;;;;;;17.14;60.97;101722.16;4992451;28;20183;-49
2022/07/15 08:58:53;;;;;;;3.00;0.80;;;;;;;17.59;59.17;101709.00;4976160;28;20193;-50
2022/07/15 09:01:18;;;;;;;3.75;0.80;;;;;;;17.75;58.08;101711.75;4994346;28;20208;-48
2022/07/15 09:03:44;;;;;;;3.13;0.95;;;;;;;17.13;59.31;101717.72;4993971;28;20196;-48
2022/07/15 09:06:36;;;;;;;2.40;0.52;;;;;;;17.70;56.94;101704.75;4992890;28;20177;-49
2022/07/15 09:09:37;;;;;;;2.03;0.70;;;;;;;17.45;59.06;101709.75;4991396;28;20197;-47
2022/07/15 09:12:08;;;;;;;2.45;0.60;;;;;;;16.87;57.09;101698.25;4993907;28;20156;-47
2022/07/15 09:14:36;;;;;;;1.65;0.60;;;;;;;17.76;56.87;101705.41;4993679;28;20581;-46
2022/07/15 09:17:04;;;;;;;4.35;0.75;;;;;;;17.71;56.28;101708.38;4994053;28;20197;-51
2022/07/15 09:19:52;;;;;;;2.72;0.47;;;;;;;18.80;55.66;101707.66;4993698;28;20240;-50
2022/07/15 09:22:19;;;;;;;1.95;0.75;;;;;;;18.24;54.56;101709.97;4993902;28;20220;-50
2022/07/15 09:24:44;;;;;;;4.93;0.60;;;;;;;17.19;57.89;101717.41;4993415;28;20220;-48
2022/07/15 09:27:31;;;;;;;2.30;0.90;;;;;;;17.08;59.19;101711.69;4993780;28;20268;-48
2022/07/15 09:36:10;;;;;;;2.30;0.70;;;;;;;16.74;61.63;101724.16;4993717;28;20185;-48
2022/07/15 09:38:40;;;;;;;2.78;1.05;;;;;;;16.75;61.53;101717.81;4993227;28;20200;-48
2022/07/15 09:41:26;;;;;;;0.98;0.63;;;;;;;16.99;61.39;101713.03;4993961;28;20206;-47
2022/07/15 09:43:55;;;;;;;2.70;0.40;;;;;;;17.01;61.17;101730.06;4992655;28;20288;-49
2022/07/15 09:46:22;;;;;;;1.88;0.70;;;;;;;17.01;61.32;101724.66;4992696;28;20545;-50
2022/07/15 09:48:50;;;;;;;2.47;0.98;;;;;;;17.43;61.13;101725.22;4973582;28;20201;-48
2022/07/15 09:51:16;;;;;;;3.28;0.77;;;;;;;17.28;60.15;101726.88;4974053;28;20178;-49
2022/07/15 09:53:42;;;;;;;0.90;0.50;;;;;;;17.16;60.68;101727.50;4956465;28;20182;-47
2022/07/15 09:56:10;;;;;;;3.15;0.50;;;;;;;17.30;60.07;101731.25;4973467;28;20585;-49
2022/07/15 09:58:41;;;;;;;2.25;0.63;;;;;;;17.58;59.16;101728.91;4973705;28;20202;-49
2022/07/15 10:01:09;;;;;;;1.58;0.52;;;;;;;17.58;59.59;101732.53;4973642;28;20206;-50
2022/07/15 10:03:35;;;;;;;1.00;0.40;;;;;;;17.43;59.34;101730.63;4983814;28;20645;-48
2022/07/15 10:06:02;;;;;;;2.38;0.80;;;;;;;17.26;61.30;101732.38;4993254;28;20280;-48
2022/07/15 10:08:30;;;;;;;0.90;0.30;;;;;;;17.09;60.75;101735.06;4992624;28;20201;-47
2022/07/15 10:10:56;;;;;;;1.92;0.50;;;;;;;17.13;61.95;101741.22;4975597;28;20547;-50
2022/07/15 10:13:39;;;;;;;4.60;0.70;;;;;;;16.99;62.38;101739.19;4992430;28;20181;-48
2022/07/15 10:16:24;;;;;;;4.70;0.60;;;;;;;16.94;62.47;101742.13;4992286;28;20280;-47
2022/07/15 10:19:17;;;;;;;1.45;0.60;;;;;;;16.88;63.10;101743.34;4992464;28;20692;-46
2022/07/15 10:21:53;;;;;;;3.65;0.77;;;;;;;17.01;62.92;101745.41;4992605;28;20216;-47
2022/07/15 10:24:43;;;;;;;2.35;0.50;;;;;;;17.00;63.86;101746.38;4974808;28;20233;-47
2022/07/15 10:27:41;;;;;;;1.98;0.50;;;;;;;17.46;63.43;101741.31;4966072;28;20291;-47
2022/07/15 10:30:07;;;;;;;2.30;0.30;;;;;;;17.13;61.77;101744.81;4947771;28;20709;-48
2022/07/15 10:33:06;;;;;;;3.38;0.50;;;;;;;17.32;61.39;101742.03;4973334;28;20542;-48
2022/07/15 10:35:36;;;;;;;1.48;0.38;;;;;;;17.08;62.37;101738.75;4973398;28;20209;-47
2022/07/15 10:38:29;;;;;;;0.82;0.50;;;;;;;17.13;62.19;101739.38;4973499;28;20202;-47
2022/07/15 10:41:02;;;;;;;3.28;0.40;;;;;;;17.01;63.08;101740.00;4973232;28;20231;-47
2022/07/15 10:43:37;;;;;;;3.05;0.60;;;;;;;17.10;62.17;101744.97;4972894;28;20198;-49
2022/07/15 10:46:05;;;;;;;0.95;0.50;;;;;;;17.49;62.20;101736.59;4973255;28;20189;-48
2022/07/15 10:48:30;;;;;;;3.70;0.60;;;;;;;17.03;64.46;101757.03;4973107;28;20206;-48
2022/07/15 10:50:56;;;;;;;0.75;0.35;;;;;;;16.82;64.32;101754.47;4973324;28;20551;-47
2022/07/15 10:53:25;;;;;;;0.35;0.20;;;;;;;16.74;65.13;101753.06;4972184;28;20306;-47
2022/07/15 10:55:51;;;;;;;1.75;0.43;;;;;;;16.69;65.70;101742.47;4973338;28;20269;-49
2022/07/15 10:58:17;;;;;;;1.27;0.35;;;;;;;17.04;66.28;101756.97;4973003;28;20217;-48
2022/07/15 11:00:44;;;;;;;2.25;0.50;;;;;;;16.99;64.23;101750.03;4973094;28;20198;-47
2022/07/15 11:03:12;;;;;;;1.45;0.52;;;;;;;17.84;61.85;101738.41;4972645;28;20464;-49
2022/07/15 11:06:02;;;;;;;1.15;0.35;;;;;;;18.11;60.32;101749.59;4972500;28;20182;-48
2022/07/15 11:08:33;;;;;;;0.85;0.30;;;;;;;18.00;61.21;101743.88;4972656;28;20293;-50
2022/07/15 11:11:14;;;;;;;2.10;0.43;;;;;;;18.10;60.20;101743.28;4972677;28;20179;-47
2022/07/15 11:13:42;;;;;;;1.35;0.30;;;;;;;18.32;59.55;101732.13;4954917;28;20248;-49
2022/07/15 11:16:15;;;;;;;1.58;0.40;;;;;;;18.18;59.39;101737.44;4972589;28;20658;-49
2022/07/15 11:18:49;;;;;;;1.88;0.50;;;;;;;17.88;61.30;101738.16;4971509;28;20202;-47
2022/07/15 11:21:16;;;;;;;1.67;0.38;;;;;;;17.58;63.35;101743.38;4972012;28;20194;-49
2022/07/15 11:23:47;;;;;;;2.28;0.40;;;;;;;17.37;64.33;101741.78;4985146;28;20193;-49
2022/07/15 11:26:13;;;;;;;0.40;0.35;;;;;;;17.14;65.82;101734.84;4992262;28;20609;-49
2022/07/15 11:28:47;;;;;;;1.77;0.50;;;;;;;16.97;64.57;101744.72;4957695;28;20240;-49
2022/07/15 11:31:13;;;;;;;4.22;0.50;;;;;;;16.95;64.32;101740.34;4991955;28;20200;-47
2022/07/15 11:33:39;;;;;;;0.80;0.20;;;;;;;16.90;65.34;101729.72;4991326;28;20213;-48
2022/07/15 11:36:05;;;;;;;0.93;0.35;;;;;;;17.06;65.49;101746.94;4991548;28;20190;-47
2022/07/15 11:38:38;;;;;;;1.70;0.35;;;;;;;16.99;64.54;101741.91;4990827;28;20679;-48
2022/07/15 11:46:48;;;;;;;1.88;0.40;;;;;;;17.91;62.68;101738.00;4991216;28;20261;-48